Metar z pełnej godziny Komunikat METAR ze strony awiacja.imgw.pl Metar G00 EPGD METAR EPGD 231300Z VRB05KT CAVOK 18/08 Q1008 =